Huvudsida
METAR-TAF:

METAR-TAF

Flygplatser :

Albenga, Italien

latitud: 44-03N, longitud: 008-07E, höjd: 45 m

Aktuellt väderrapport

Denna rapport gjordes för 5 timmar och 14 minuter sedan, klockan 17:50 UTC
Vind 3 kt från syd/sydväst
Temperatur 23°C
Fuktighet 44%
Tryck 1027 hPa
Sikt 10 km eller mer
Få moln på en höjd av 4500 ft

METAR: LIMG 271750Z 21003KT 9999 FEW045 23/10 Q1027

Tid: 01:04 (23:04 UTC)


TAF: saknas

Aktuella väderrapporter och prognoser från 4000 flygplatser (METAR- och TAF-rapporter).

De tillgängliga stationerna syns som gula och röda prickar på kartan.

För musen över prickarna för att se namnen på stationerna.

Klicka sedan för att få väderrapporter och prognoser.

För att ändra kartan: Klicka på de gröna knapparna med ett svart kors på för att zooma in; den gröna knappen med ett streck på för att zooma ut; eller på de gröna pilarna för angränsande kartor.


METAR-TAF: